Time;durP1;ratioP1;P1;durP2;ratioP2;P2;SDS_P1;SDS_P2;PMS_P1;PMS_P2;Temp;Humidity;BMP_temperature;BMP_pressure;BME280_temperature;BME280_humidity;BME280_pressure;Samples;Min_cycle;Max_cycle;Signal;HPM_P1;HPM_P2
2022/03/05 00:02:08;;;;;;;;;;;;;;;17.72;43.13;102169.09;5016400;28;19928;-76
2022/03/05 00:04:33;;;;;;;;;;;;;;;17.72;42.90;102172.56;5002907;28;19918;-76
2022/03/05 00:06:58;;;;;;;;;;;;;;;17.69;43.14;102170.81;5001659;28;19957;-75
2022/03/05 00:09:24;;;;;;;;;;;;;;;17.69;42.91;102170.81;5021152;28;19949;-76
2022/03/05 00:11:49;;;;;;;;;;;;;;;17.69;42.94;102176.03;4987084;28;19933;-76
2022/03/05 00:14:15;;;;;;;;;;;;;;;17.68;42.95;102174.28;4984364;28;19918;-76
2022/03/05 00:16:40;;;;;;;;;;;;;;;17.68;42.88;102179.50;5014510;28;19921;-76
2022/03/05 00:19:06;;;;;;;;;;;;;;;17.69;43.02;102180.38;5018050;28;19913;-76
2022/03/05 00:21:31;;;;;;;;;;;;;;;17.68;42.83;102181.19;4998660;28;19921;-76
2022/03/05 00:23:56;;;;;;;;;;;;;;;17.66;42.96;102178.59;5002721;28;19969;-77
2022/03/05 00:26:21;;;;;;;;;;;;;;;17.66;42.71;102176.00;5012288;28;19909;-76
2022/03/05 00:28:47;;;;;;;;;;;;;;;17.66;42.89;102189.03;5005386;28;19923;-76
2022/03/05 00:31:12;;;;;;;;;;;;;;;17.65;42.75;102181.19;5020959;28;19928;-77
2022/03/05 00:33:37;;;;;;;;;;;;;;;17.65;42.92;102183.78;5005698;28;19968;-76
2022/03/05 00:36:03;;;;;;;;;;;;;;;17.64;42.83;102188.13;5002387;28;20024;-76
2022/03/05 00:38:28;;;;;;;;;;;;;;;17.65;42.95;102194.19;5002408;28;20001;-76
2022/03/05 00:40:53;;;;;;;;;;;;;;;17.63;43.05;102196.78;5001360;28;20368;-76
2022/03/05 00:43:19;;;;;;;;;;;;;;;17.63;42.82;102181.16;5029955;28;19952;-76
2022/03/05 00:45:44;;;;;;;;;;;;;;;17.64;42.74;102192.47;5039110;28;19970;-77
2022/03/05 00:48:09;;;;;;;;;;;;;;;17.61;42.82;102193.28;5011908;28;19984;-76
2022/03/05 00:50:34;;;;;;;;;;;;;;;17.62;42.73;102196.78;5004476;28;19922;-76
2022/03/05 00:53:00;;;;;;;;;;;;;;;17.62;42.73;102199.38;5000367;28;20008;-76
2022/03/05 00:55:25;;;;;;;;;;;;;;;17.61;42.84;102197.63;5000433;28;19939;-76
2022/03/05 00:57:50;;;;;;;;;;;;;;;17.60;42.96;102204.56;5011580;28;19925;-76
2022/03/05 01:00:16;;;;;;;;;;;;;;;17.60;42.86;102204.56;5017643;28;19921;-76
2022/03/05 01:02:41;;;;;;;;;;;;;;;17.59;42.98;102205.41;4983857;28;19924;-76
2022/03/05 01:05:07;;;;;;;;;;;;;;;17.60;42.68;102211.50;5018881;28;19925;-76
2022/03/05 01:07:32;;;;;;;;;;;;;;;17.59;42.60;102207.13;5003489;28;19913;-77
2022/03/05 01:09:57;;;;;;;;;;;;;;;17.59;42.76;102209.75;5036171;28;20268;-75
2022/03/05 01:12:22;;;;;;;;;;;;;;;17.59;42.64;102212.34;5023034;28;19937;-76
2022/03/05 01:14:48;;;;;;;;;;;;;;;17.56;42.68;102207.97;5013689;28;19917;-76
2022/03/05 01:17:14;;;;;;;;;;;;;;;17.57;42.75;102214.94;5001936;28;19917;-76
2022/03/05 01:19:39;;;;;;;;;;;;;;;17.56;42.53;102210.59;5003066;28;19924;-76
2022/03/05 01:22:05;;;;;;;;;;;;;;;17.56;42.76;102209.72;4983291;28;20020;-76
2022/03/05 01:24:30;;;;;;;;;;;;;;;17.56;42.70;102207.13;4999092;28;20286;-76
2022/03/05 01:26:55;;;;;;;;;;;;;;;17.56;42.58;102207.13;4999010;28;19922;-76
2022/03/05 01:29:20;;;;;;;;;;;;;;;17.56;42.71;102212.31;5006806;28;20264;-76
2022/03/05 01:31:46;;;;;;;;;;;;;;;17.54;42.74;102212.28;5002656;28;20279;-76
2022/03/05 01:34:11;;;;;;;;;;;;;;;17.52;42.51;102208.78;5016630;28;19917;-76
2022/03/05 01:36:36;;;;;;;;;;;;;;;17.53;42.59;102204.44;5016198;28;19913;-76
2022/03/05 01:39:01;;;;;;;;;;;;;;;17.50;42.82;102199.22;4999336;28;19913;-78
2022/03/05 01:41:27;;;;;;;;;;;;;;;17.51;42.73;102204.47;5017256;28;20133;-78
2022/03/05 01:43:53;;;;;;;;;;;;;;;17.50;42.66;102199.22;5015005;28;19924;-77
2022/03/05 01:46:32;;;;;;;;;;;;;;;17.50;42.57;102196.63;5000057;28;19913;-77
2022/03/05 01:48:57;;;;;;;;;;;;;;;17.48;42.69;102202.69;5000328;28;19913;-78
2022/03/05 01:51:22;;;;;;;;;;;;;;;17.47;42.60;102194.84;5028030;28;20012;-79
2022/03/05 01:53:47;;;;;;;;;;;;;;;17.47;42.75;102197.47;5017374;28;19948;-77
2022/03/05 01:56:13;;;;;;;;;;;;;;;17.46;42.66;102199.19;5001502;28;19924;-78
2022/03/05 01:58:39;;;;;;;;;;;;;;;17.47;42.54;102197.47;5002682;28;20012;-78
2022/03/05 02:01:04;;;;;;;;;;;;;;;17.46;42.52;102199.19;5032966;28;19921;-79
2022/03/05 02:03:29;;;;;;;;;;;;;;;17.46;42.59;102204.41;5018223;28;19917;-78
2022/03/05 02:05:55;;;;;;;;;;;;;;;17.44;42.53;102202.59;5019961;28;19921;-78
2022/03/05 02:08:20;;;;;;;;;;;;;;;17.45;42.60;102193.97;5020039;28;19917;-78
2022/03/05 02:10:45;;;;;;;;;;;;;;;17.44;42.55;102198.31;5010165;28;19929;-78
2022/03/05 02:13:10;;;;;;;;;;;;;;;17.41;42.75;102190.44;5025324;28;19921;-78
2022/03/05 02:15:36;;;;;;;;;;;;;;;17.43;42.38;102195.66;5005910;28;19921;-78
2022/03/05 02:18:01;;;;;;;;;;;;;;;17.44;42.51;102192.19;5018966;28;20265;-78
2022/03/05 02:20:28;;;;;;;;;;;;;;;17.42;42.65;102188.69;5032319;28;19928;-78
2022/03/05 02:22:55;;;;;;;;;;;;;;;17.40;42.35;102183.50;5019170;28;19913;-78
2022/03/05 02:25:20;;;;;;;;;;;;;;;17.41;42.73;102182.63;5002957;28;19920;-78
2022/03/05 02:27:45;;;;;;;;;;;;;;;17.39;42.40;102173.06;5019789;28;20480;-78
2022/03/05 02:30:10;;;;;;;;;;;;;;;17.39;42.41;102173.94;5008257;28;19917;-78
2022/03/05 02:32:36;;;;;;;;;;;;;;;17.40;42.38;102183.50;5024176;28;20280;-78
2022/03/05 02:35:01;;;;;;;;;;;;;;;17.39;42.51;102179.13;5002423;28;20004;-78
2022/03/05 02:37:27;;;;;;;;;;;;;;;17.39;42.48;102184.34;5021658;28;19933;-78
2022/03/05 02:39:52;;;;;;;;;;;;;;;17.38;42.48;102174.78;5001264;28;19929;-78
2022/03/05 02:42:17;;;;;;;;;;;;;;;17.37;42.41;102175.63;5005741;28;19922;-78
2022/03/05 02:44:43;;;;;;;;;;;;;;;17.39;42.36;102179.13;5000687;28;19918;-78
2022/03/05 02:47:08;;;;;;;;;;;;;;;17.39;42.61;102176.53;4984972;28;19921;-78
2022/03/05 02:49:34;;;;;;;;;;;;;;;17.38;42.39;102173.94;5018724;28;19925;-78
2022/03/05 02:51:59;;;;;;;;;;;;;;;17.37;42.38;102170.44;5027163;28;19925;-77
2022/03/05 02:54:24;;;;;;;;;;;;;;;17.35;42.33;102166.94;5031138;28;19922;-78
2022/03/05 02:56:49;;;;;;;;;;;;;;;17.34;42.54;102166.94;4991049;28;19944;-78
2022/03/05 02:59:15;;;;;;;;;;;;;;;17.33;42.48;102171.25;4989878;28;19976;-78
2022/03/05 03:01:40;;;;;;;;;;;;;;;17.34;42.39;102175.59;5023932;28;19921;-78
2022/03/05 03:04:05;;;;;;;;;;;;;;;17.32;42.62;102179.91;5022727;28;19923;-78
2022/03/05 03:06:31;;;;;;;;;;;;;;;17.34;42.55;102180.81;5020945;28;20016;-79
2022/03/05 03:08:56;;;;;;;;;;;;;;;17.33;42.56;102186.00;5018633;28;19973;-80
2022/03/05 03:11:21;;;;;;;;;;;;;;;17.32;42.52;102182.53;5020911;28;19968;-78
2022/03/05 03:13:47;;;;;;;;;;;;;;;17.32;42.33;102185.13;5037745;28;19961;-78
2022/03/05 03:16:12;;;;;;;;;;;;;;;17.32;42.32;102179.06;5024209;28;19922;-78
2022/03/05 03:18:38;;;;;;;;;;;;;;;17.34;42.38;102177.34;5018032;28;19921;-78
2022/03/05 03:21:03;;;;;;;;;;;;;;;17.32;42.40;102177.31;5004581;28;19928;-78
2022/03/05 03:23:28;;;;;;;;;;;;;;;17.32;42.39;102172.13;5022412;28;19917;-78
2022/03/05 03:25:54;;;;;;;;;;;;;;;17.31;42.41;102169.47;5006637;28;19940;-78
2022/03/05 03:28:19;;;;;;;;;;;;;;;17.28;42.45;102168.59;5019687;28;19921;-78
2022/03/05 03:30:44;;;;;;;;;;;;;;;17.31;42.27;102164.28;5020900;28;19995;-78
2022/03/05 03:33:09;;;;;;;;;;;;;;;17.30;42.43;102168.63;5016095;28;19924;-78
2022/03/05 03:35:35;;;;;;;;;;;;;;;17.28;42.43;102167.72;5001048;28;20012;-78
2022/03/05 03:38:00;;;;;;;;;;;;;;;17.26;42.28;102165.09;5000939;28;19918;-78
2022/03/05 03:40:25;;;;;;;;;;;;;;;17.28;42.27;102167.72;5019906;28;19998;-78
2022/03/05 03:42:51;;;;;;;;;;;;;;;17.25;42.34;102160.75;5016984;28;19921;-78
2022/03/05 03:45:17;;;;;;;;;;;;;;;17.26;42.68;102159.03;5009192;28;19936;-78
2022/03/05 03:47:43;;;;;;;;;;;;;;;17.27;42.33;102160.78;5038794;28;19913;-78
2022/03/05 03:50:12;;;;;;;;;;;;;;;17.25;42.38;102155.56;5007842;28;19918;-78
2022/03/05 03:52:37;;;;;;;;;;;;;;;17.25;42.31;102157.28;5041748;28;19917;-78
2022/03/05 03:55:04;;;;;;;;;;;;;;;17.26;42.28;102159.03;5026884;28;20435;-78
2022/03/05 03:57:29;;;;;;;;;;;;;;;17.25;42.22;102157.28;5007609;28;19917;-78
2022/03/05 03:59:54;;;;;;;;;;;;;;;17.25;42.26;102158.16;4993339;28;19925;-78
2022/03/05 04:02:20;;;;;;;;;;;;;;;17.24;42.33;102163.31;5013304;28;19924;-78
2022/03/05 04:04:45;;;;;;;;;;;;;;;17.22;42.52;102159.81;5022436;28;19988;-78
2022/03/05 04:09:55;;;;;;;;;;;;;;;17.24;42.07;102152.91;5033858;28;19929;-78
2022/03/05 04:12:21;;;;;;;;;;;;;;;17.23;42.42;102156.41;5008312;28;19925;-78
2022/03/05 04:14:46;;;;;;;;;;;;;;;17.20;42.41;102156.34;5023360;28;19971;-79
2022/03/05 04:17:11;;;;;;;;;;;;;;;17.20;42.33;102158.94;5023106;28;19925;-78
2022/03/05 04:19:39;;;;;;;;;;;;;;;17.19;42.41;102152.00;4996785;28;20297;-78
2022/03/05 04:22:04;;;;;;;;;;;;;;;17.17;42.12;102154.56;4983394;28;20277;-78
2022/03/05 04:24:30;;;;;;;;;;;;;;;17.18;42.20;102158.94;5002477;28;19920;-78
2022/03/05 04:26:55;;;;;;;;;;;;;;;17.17;42.23;102159.78;5018849;28;19921;-77
2022/03/05 04:29:20;;;;;;;;;;;;;;;17.18;42.15;102160.63;5003990;28;19956;-77
2022/03/05 04:31:45;;;;;;;;;;;;;;;17.17;42.35;102164.97;5003494;28;19922;-78
2022/03/05 04:34:11;;;;;;;;;;;;;;;17.16;42.21;102160.66;5020537;28;19920;-78
2022/03/05 04:36:36;;;;;;;;;;;;;;;17.17;42.24;102161.50;5036620;28;19913;-78
2022/03/05 04:39:01;;;;;;;;;;;;;;;17.16;42.17;102159.75;5006062;28;19944;-78
2022/03/05 04:41:27;;;;;;;;;;;;;;;17.17;42.20;102161.50;5028916;28;19999;-78
2022/03/05 04:43:52;;;;;;;;;;;;;;;17.16;42.28;102159.75;5004938;28;19971;-78
2022/03/05 04:46:17;;;;;;;;;;;;;;;17.15;42.02;102160.59;5005738;28;19921;-78
2022/03/05 04:48:42;;;;;;;;;;;;;;;17.13;42.20;102168.38;5004575;28;19983;-77
2022/03/05 04:51:08;;;;;;;;;;;;;;;17.14;42.22;102170.16;5031421;28;19963;-78
2022/03/05 04:53:33;;;;;;;;;;;;;;;17.13;42.25;102170.13;5008087;28;19924;-77
2022/03/05 04:55:58;;;;;;;;;;;;;;;17.12;42.13;102171.84;4994251;28;19928;-77
2022/03/05 04:58:23;;;;;;;;;;;;;;;17.13;42.07;102167.53;5014047;28;19928;-76
2022/03/05 05:00:48;;;;;;;;;;;;;;;17.12;42.12;102160.59;5036066;28;19928;-76
2022/03/05 05:03:14;;;;;;;;;;;;;;;17.12;42.27;102163.19;5019150;28;19917;-76
2022/03/05 05:05:39;;;;;;;;;;;;;;;17.11;41.99;102166.63;5038251;28;19928;-77
2022/03/05 05:08:05;;;;;;;;;;;;;;;17.10;41.84;102168.34;5020985;28;19921;-77
2022/03/05 05:10:30;;;;;;;;;;;;;;;17.10;42.15;102163.16;5004530;28;19933;-77
2022/03/05 05:12:56;;;;;;;;;;;;;;;17.11;42.15;102174.44;5023254;28;20295;-78
2022/03/05 05:15:21;;;;;;;;;;;;;;;17.10;42.23;102175.28;5019444;28;19921;-77
2022/03/05 05:17:46;;;;;;;;;;;;;;;17.09;42.09;102177.00;5018201;28;20004;-78
2022/03/05 05:20:12;;;;;;;;;;;;;;;17.09;42.28;102174.41;4980358;28;20300;-78
2022/03/05 05:22:37;;;;;;;;;;;;;;;17.11;42.17;102166.63;5021552;28;20420;-77
2022/03/05 05:25:04;;;;;;;;;;;;;;;17.09;41.85;102176.13;5039598;28;19917;-79
2022/03/05 05:27:29;;;;;;;;;;;;;;;17.08;42.07;102172.66;5031259;28;19924;-78
2022/03/05 05:29:54;;;;;;;;;;;;;;;17.08;42.15;102177.00;5018839;28;19949;-78
2022/03/05 05:32:19;;;;;;;;;;;;;;;17.07;41.80;102176.09;4980364;28;19922;-78
2022/03/05 05:34:45;;;;;;;;;;;;;;;17.05;42.14;102180.44;4981092;28;19926;-78
2022/03/05 05:37:10;;;;;;;;;;;;;;;17.05;42.13;102189.09;5000692;28;19921;-78
2022/03/05 05:39:35;;;;;;;;;;;;;;;17.05;42.33;102183.91;5003602;28;19921;-77
2022/03/05 05:42:01;;;;;;;;;;;;;;;17.04;42.29;102184.75;5018457;28;19960;-77
2022/03/05 05:44:26;;;;;;;;;;;;;;;17.04;42.06;102183.88;5005065;28;19917;-78
2022/03/05 05:46:51;;;;;;;;;;;;;;;17.02;41.99;102186.44;5006022;28;19920;-78
2022/03/05 05:49:16;;;;;;;;;;;;;;;17.03;41.88;102189.94;5039568;28;19968;-79
2022/03/05 05:51:42;;;;;;;;;;;;;;;17.01;42.22;102195.09;5008881;28;20324;-78
2022/03/05 05:54:08;;;;;;;;;;;;;;;17.01;42.21;102200.31;5005342;28;19929;-78
2022/03/05 05:56:33;;;;;;;;;;;;;;;17.02;42.02;102195.97;5021255;28;19964;-77
2022/03/05 05:58:58;;;;;;;;;;;;;;;17.01;42.18;102204.66;5005848;28;19923;-78
2022/03/05 06:01:24;;;;;;;;;;;;;;;17.01;42.14;102196.84;5023068;28;19924;-78
2022/03/05 06:03:50;;;;;;;;;;;;;;;17.01;42.10;102196.84;5006014;28;20264;-78
2022/03/05 06:06:15;;;;;;;;;;;;;;;17.00;42.17;102203.75;4993877;28;19918;-77
2022/03/05 06:08:40;;;;;;;;;;;;;;;17.00;41.98;102200.28;5011118;28;19925;-77
2022/03/05 06:11:06;;;;;;;;;;;;;;;17.00;42.05;102206.34;4985933;28;19926;-78
2022/03/05 06:13:31;;;;;;;;;;;;;;;16.99;41.94;102201.16;5029186;28;19971;-78
2022/03/05 06:15:57;;;;;;;;;;;;;;;17.00;42.04;102202.88;5023042;28;19921;-79
2022/03/05 06:18:22;;;;;;;;;;;;;;;17.00;41.92;102203.75;4987447;28;19965;-78
2022/03/05 06:20:47;;;;;;;;;;;;;;;17.00;41.89;102208.94;5014056;28;20354;-78
2022/03/05 06:23:13;;;;;;;;;;;;;;;17.00;42.04;102211.56;5013273;28;20341;-78
2022/03/05 06:25:38;;;;;;;;;;;;;;;16.98;42.08;102209.78;5022737;28;19921;-78
2022/03/05 06:28:03;;;;;;;;;;;;;;;16.99;41.85;102208.94;5034258;28;19914;-78
2022/03/05 06:30:29;;;;;;;;;;;;;;;17.00;42.09;102208.09;4997027;28;19927;-78
2022/03/05 06:32:54;;;;;;;;;;;;;;;17.00;42.09;102215.88;5011338;28;19926;-78
2022/03/05 06:35:19;;;;;;;;;;;;;;;17.01;41.90;102213.31;5020078;28;19921;-78
2022/03/05 06:37:45;;;;;;;;;;;;;;;17.00;42.06;102210.69;5009690;28;19928;-78
2022/03/05 06:40:10;;;;;;;;;;;;;;;17.02;41.74;102211.59;5023220;28;20298;-77
2022/03/05 06:42:37;;;;;;;;;;;;;;;17.02;41.98;102216.78;5009476;28;20295;-78
2022/03/05 06:45:02;;;;;;;;;;;;;;;17.02;41.67;102220.25;5005179;28;19924;-78
2022/03/05 06:47:27;;;;;;;;;;;;;;;17.03;41.64;102216.81;5006603;28;19921;-79
2022/03/05 06:49:53;;;;;;;;;;;;;;;17.02;41.81;102225.44;4989622;28;20025;-77
2022/03/05 06:52:19;;;;;;;;;;;;;;;17.06;41.86;102224.66;5006688;28;19993;-77
2022/03/05 06:54:44;;;;;;;;;;;;;;;17.10;41.68;102235.13;5002400;28;20013;-79
2022/03/05 06:57:09;;;;;;;;;;;;;;;17.09;41.92;102239.41;5001965;28;19917;-78
2022/03/05 06:59:34;;;;;;;;;;;;;;;17.27;42.50;102226.69;5003508;28;19921;-77
2022/03/05 07:02:00;;;;;;;;;;;;;;;17.39;42.64;102228.56;5009720;28;19917;-78
2022/03/05 07:04:25;;;;;;;;;;;;;;;17.48;42.45;102228.72;5019482;28;19967;-81
2022/03/05 07:06:50;;;;;;;;;;;;;;;17.47;42.44;102232.16;5009860;28;19914;-81
2022/03/05 07:09:15;;;;;;;;;;;;;;;17.54;42.24;102235.72;5006894;28;19917;-83
2022/03/05 07:11:41;;;;;;;;;;;;;;;17.58;42.09;102239.25;5001066;28;20300;-82
2022/03/05 07:14:06;;;;;;;;;;;;;;;17.59;42.31;102243.56;5047276;28;19913;-81
2022/03/05 07:16:32;;;;;;;;;;;;;;;17.58;42.01;102241.84;5021648;28;19920;-80
2022/03/05 07:18:57;;;;;;;;;;;;;;;17.62;42.00;102243.63;4988880;28;19918;-83
2022/03/05 07:21:22;;;;;;;;;;;;;;;17.62;41.84;102249.72;5013245;28;19917;-81
2022/03/05 07:23:47;;;;;;;;;;;;;;;17.62;41.96;102254.06;5011752;28;19922;-82
2022/03/05 07:26:13;;;;;;;;;;;;;;;17.64;41.90;102265.34;5023243;28;20009;-82
2022/03/05 07:28:38;;;;;;;;;;;;;;;17.65;41.95;102259.28;5009664;28;19917;-81
2022/03/05 07:31:03;;;;;;;;;;;;;;;17.66;41.92;102258.44;5029156;28;19921;-83
2022/03/05 07:33:28;;;;;;;;;;;;;;;17.66;41.77;102259.31;5010289;28;20013;-82
2022/03/05 07:35:54;;;;;;;;;;;;;;;17.68;41.76;102261.91;5035807;28;20368;-83
2022/03/05 07:38:19;;;;;;;;;;;;;;;17.69;41.64;102256.72;4995340;28;19917;-82
2022/03/05 07:40:45;;;;;;;;;;;;;;;17.71;41.68;102259.38;5015623;28;19925;-84
2022/03/05 07:43:12;;;;;;;;;;;;;;;17.71;41.64;102261.97;5012833;28;19925;-82
2022/03/05 07:45:37;;;;;;;;;;;;;;;17.72;41.68;102247.22;5011713;28;20368;-81
2022/03/05 07:48:02;;;;;;;;;;;;;;;17.73;41.83;102255.06;5033678;28;19917;-80
2022/03/05 07:50:28;;;;;;;;;;;;;;;17.74;41.90;102251.56;5006876;28;19921;-82
2022/03/05 07:52:53;;;;;;;;;;;;;;;17.75;42.14;102253.34;5004138;28;19930;-82
2022/03/05 07:55:19;;;;;;;;;;;;;;;17.82;41.60;102257.78;4988244;28;19917;-81
2022/03/05 07:57:44;;;;;;;;;;;;;;;18.05;41.11;102255.47;5016377;28;19921;-82
2022/03/05 08:00:10;;;;;;;;;;;;;;;18.23;40.71;102262.59;5007634;28;19949;-82
2022/03/05 08:02:35;;;;;;;;;;;;;;;18.39;40.45;102265.34;5040074;28;20022;-82
2022/03/05 08:05:00;;;;;;;;;;;;;;;18.64;39.85;102262.13;5023521;28;20323;-82
2022/03/05 08:07:26;;;;;;;;;;;;;;;19.05;39.04;102261.63;5008788;28;19924;-83
2022/03/05 08:09:51;;;;;;;;;;;;;;;19.21;38.68;102267.81;5006430;28;19973;-82
2022/03/05 08:12:16;;;;;;;;;;;;;;;19.21;38.52;102270.41;5027312;28;19981;-83
2022/03/05 08:14:44;;;;;;;;;;;;;;;19.20;38.61;102273.88;5019339;28;20375;-82
2022/03/05 08:17:10;;;;;;;;;;;;;;;19.18;38.66;102272.97;5036248;28;19918;-82
2022/03/05 08:19:35;;;;;;;;;;;;;;;19.12;38.88;102272.97;5007891;28;20035;-82
2022/03/05 08:22:00;;;;;;;;;;;;;;;19.11;38.66;102279.03;5007794;28;19923;-83
2022/03/05 08:24:25;;;;;;;;;;;;;;;19.07;38.73;102278.13;5001615;28;19922;-82
2022/03/05 08:26:50;;;;;;;;;;;;;;;19.02;39.16;102281.56;5006176;28;19918;-82
2022/03/05 08:29:16;;;;;;;;;;;;;;;19.01;39.00;102280.72;5008077;28;19944;-82
2022/03/05 08:31:41;;;;;;;;;;;;;;;19.04;38.86;102282.47;5045228;28;20354;-83
2022/03/05 08:34:07;;;;;;;;;;;;;;;19.02;38.99;102281.56;5044755;28;19921;-82
2022/03/05 08:36:32;;;;;;;;;;;;;;;19.00;39.12;102272.88;5052776;28;19920;-83
2022/03/05 08:38:58;;;;;;;;;;;;;;;18.98;39.05;102272.84;5020052;28;19917;-83
2022/03/05 08:41:23;;;;;;;;;;;;;;;18.98;38.93;102270.25;5016853;28;20375;-81
2022/03/05 08:43:50;;;;;;;;;;;;;;;18.95;39.17;102277.19;5029976;28;19925;-83
2022/03/05 08:46:15;;;;;;;;;;;;;;;18.90;39.35;102278.03;5023007;28;19923;-83
2022/03/05 08:48:40;;;;;;;;;;;;;;;18.90;38.99;102282.34;5036838;28;19961;-83
2022/03/05 08:51:05;;;;;;;;;;;;;;;18.89;39.21;102271.03;5024001;28;19928;-81
2022/03/05 08:53:30;;;;;;;;;;;;;;;18.84;39.47;102264.94;5006523;28;20380;-81
2022/03/05 08:55:56;;;;;;;;;;;;;;;18.83;39.64;102267.50;5015525;28;19918;-82
2022/03/05 08:58:21;;;;;;;;;;;;;;;18.79;39.62;102274.47;5004875;28;19918;-82
2022/03/05 09:00:47;;;;;;;;;;;;;;;18.76;39.67;102273.50;5006086;28;19939;-82
2022/03/05 09:03:12;;;;;;;;;;;;;;;18.72;39.86;102275.22;4993181;28;19925;-81
2022/03/05 09:05:37;;;;;;;;;;;;;;;18.75;39.82;102277.88;5005113;28;19913;-82
2022/03/05 09:08:03;;;;;;;;;;;;;;;18.76;39.82;102289.16;5017012;28;19921;-83
2022/03/05 09:10:29;;;;;;;;;;;;;;;18.71;40.29;102291.72;5036113;28;19964;-81
2022/03/05 09:12:54;;;;;;;;;;;;;;;18.73;40.96;102286.50;4991370;28;20284;-81
2022/03/05 09:15:20;;;;;;;;;;;;;;;18.67;42.65;102288.22;5020951;28;20020;-78
2022/03/05 09:17:45;;;;;;;;;;;;;;;18.51;47.08;102291.56;4998797;28;19922;-84
2022/03/05 09:20:10;;;;;;;;;;;;;;;18.46;47.62;102301.03;5007418;28;19921;-82
2022/03/05 09:22:36;;;;;;;;;;;;;;;18.40;43.63;102293.16;5030272;28;19917;-78
2022/03/05 09:25:01;;;;;;;;;;;;;;;18.01;46.18;102290.16;5024093;28;19925;-79
2022/03/05 09:27:27;;;;;;;;;;;;;;;18.07;50.10;102295.44;5044699;28;19913;-82
2022/03/05 09:29:52;;;;;;;;;;;;;;;18.14;45.41;102290.28;5043302;28;19913;-80
2022/03/05 09:32:17;;;;;;;;;;;;;;;18.13;46.91;102286.78;5043561;28;19917;-80
2022/03/05 09:34:43;;;;;;;;;;;;;;;18.08;47.81;102291.97;5023295;28;19964;-79
2022/03/05 09:37:08;;;;;;;;;;;;;;;18.06;46.58;102285.00;5041357;28;19928;-80
2022/03/05 09:39:34;;;;;;;;;;;;;;;18.03;44.79;102291.03;5024200;28;19917;-80
2022/03/05 09:42:00;;;;;;;;;;;;;;;18.02;45.17;102288.41;5018467;28;19925;-81
2022/03/05 09:44:25;;;;;;;;;;;;;;;17.97;46.80;102295.31;5005226;28;19922;-84
2022/03/05 09:46:51;;;;;;;;;;;;;;;17.97;45.79;102292.69;5004980;28;19949;-82
2022/03/05 09:49:17;;;;;;;;;;;;;;;17.96;46.75;102283.13;5010529;28;19948;-82
2022/03/05 09:51:43;;;;;;;;;;;;;;;18.00;47.87;102285.78;5018791;28;19926;-81
2022/03/05 09:54:08;;;;;;;;;;;;;;;18.01;47.77;102287.53;5007481;28;20516;-81
2022/03/05 09:56:34;;;;;;;;;;;;;;;18.03;47.51;102292.75;4999276;28;19941;-85
2022/03/05 09:58:59;;;;;;;;;;;;;;;18.03;47.23;102290.16;4997825;28;19917;-84
2022/03/05 10:01:24;;;;;;;;;;;;;;;18.04;47.14;102289.31;4997388;28;19918;-85
2022/03/05 10:03:51;;;;;;;;;;;;;;;18.00;47.32;102291.00;5014721;28;19914;-85
2022/03/05 10:06:17;;;;;;;;;;;;;;;18.00;47.25;102293.59;4995719;28;19918;-84
2022/03/05 10:08:42;;;;;;;;;;;;;;;18.00;47.25;102295.34;4992653;28;19993;-82
2022/03/05 10:11:09;;;;;;;;;;;;;;;17.97;47.39;102292.69;4992200;28;19945;-83
2022/03/05 10:13:36;;;;;;;;;;;;;;;17.94;47.10;102292.66;4992026;28;20264;-80
2022/03/05 10:16:03;;;;;;;;;;;;;;;17.95;46.47;102294.41;5012791;28;20271;-82
2022/03/05 10:18:39;;;;;;;;;;;;;;;17.93;46.49;102293.53;5006667;28;20019;-80
2022/03/05 10:21:06;;;;;;;;;;;;;;;17.92;46.49;102287.44;4985363;28;19942;-82
2022/03/05 10:23:36;;;;;;;;;;;;;;;17.91;46.25;102288.28;5000384;28;19917;-81
2022/03/05 10:26:03;;;;;;;;;;;;;;;17.89;46.27;102296.06;5011110;28;20368;-81
2022/03/05 10:28:28;;;;;;;;;;;;;;;17.87;46.28;102300.38;5001554;28;19921;-80
2022/03/05 10:30:58;;;;;;;;;;;;;;;17.86;45.85;102292.56;5018418;28;19984;-80
2022/03/05 10:33:28;;;;;;;;;;;;;;;17.86;45.90;102284.75;5018933;28;19917;-80
2022/03/05 10:35:54;;;;;;;;;;;;;;;17.85;45.97;102290.81;5018502;28;19921;-80
2022/03/05 10:38:19;;;;;;;;;;;;;;;17.87;45.82;102294.31;5000323;28;19913;-80
2022/03/05 10:40:51;;;;;;;;;;;;;;;17.86;46.42;102292.56;5025992;28;19924;-80
2022/03/05 10:43:17;;;;;;;;;;;;;;;17.87;46.06;102291.69;5036808;28;19913;-81
2022/03/05 10:45:50;;;;;;;;;;;;;;;17.87;46.13;102289.97;5014172;28;19918;-81
2022/03/05 10:48:21;;;;;;;;;;;;;;;17.88;46.02;102285.66;5000471;28;19917;-81
2022/03/05 10:50:46;;;;;;;;;;;;;;;17.86;46.57;102288.22;5017869;28;19913;-81
2022/03/05 10:53:11;;;;;;;;;;;;;;;17.87;46.56;102282.16;5000407;28;19973;-80
2022/03/05 10:55:37;;;;;;;;;;;;;;;17.89;46.05;102288.25;4999593;28;20296;-75
2022/03/05 10:58:13;;;;;;;;;;;;;;;17.88;46.14;102283.06;5017042;28;19913;-75
2022/03/05 11:00:39;;;;;;;;;;;;;;;17.88;46.34;102288.25;5003111;28;19925;-75
2022/03/05 11:03:04;;;;;;;;;;;;;;;17.88;46.12;102285.66;5003135;28;19913;-75
2022/03/05 11:05:30;;;;;;;;;;;;;;;17.89;47.62;102280.44;4986972;28;19948;-75
2022/03/05 11:07:56;;;;;;;;;;;;;;;17.89;46.35;102283.03;5003187;28;20368;-76
2022/03/05 11:10:23;;;;;;;;;;;;;;;17.91;46.44;102287.41;5002995;28;19964;-75
2022/03/05 11:12:52;;;;;;;;;;;;;;;17.91;46.43;102287.41;5002923;28;19922;-75
2022/03/05 11:15:18;;;;;;;;;;;;;;;17.91;46.19;102284.81;5020784;28;19914;-75
2022/03/05 11:17:45;;;;;;;;;;;;;;;17.91;46.42;102288.28;5020829;28;19959;-75
2022/03/05 11:20:10;;;;;;;;;;;;;;;17.93;46.02;102290.91;5003726;28;19914;-75
2022/03/05 11:22:36;;;;;;;;;;;;;;;17.91;46.09;102288.28;4986828;28;19924;-75
2022/03/05 11:25:01;;;;;;;;;;;;;;;17.93;47.49;102283.09;5003037;28;19941;-75
2022/03/05 11:27:26;;;;;;;;;;;;;;;17.93;46.46;102285.72;5022914;28;20407;-75
2022/03/05 11:29:53;;;;;;;;;;;;;;;17.93;46.33;102283.09;5025081;28;20287;-75
2022/03/05 11:32:19;;;;;;;;;;;;;;;17.92;46.33;102281.34;5024490;28;20295;-75
2022/03/05 11:34:45;;;;;;;;;;;;;;;17.92;46.29;102284.84;5006212;28;19920;-75
2022/03/05 11:37:34;;;;;;;;;;;;;;;17.92;46.31;102281.34;5005153;28;19914;-73
2022/03/05 11:40:00;;;;;;;;;;;;;;;17.91;46.12;102275.25;4998320;28;20004;-78
2022/03/05 11:42:26;;;;;;;;;;;;;;;17.91;46.25;102277.00;5006753;28;19918;-77
2022/03/05 11:44:52;;;;;;;;;;;;;;;17.91;46.02;102277.00;5023999;28;19914;-76
2022/03/05 11:47:23;;;;;;;;;;;;;;;17.91;46.49;102274.41;5004326;28;19928;-75
2022/03/05 11:50:01;;;;;;;;;;;;;;;17.92;47.10;102273.53;5023423;28;20328;-82
2022/03/05 11:52:52;;;;;;;;;;;;;;;17.94;46.21;102277.03;5022225;28;19945;-82
2022/03/05 11:55:18;;;;;;;;;;;;;;;17.97;46.57;102282.28;5042442;28;19913;-83
2022/03/05 11:57:50;;;;;;;;;;;;;;;17.97;46.70;102274.47;5024568;28;19952;-82
2022/03/05 12:00:18;;;;;;;;;;;;;;;17.99;46.82;102273.63;5018648;28;19914;-81
2022/03/05 12:02:48;;;;;;;;;;;;;;;18.02;46.97;102267.56;5019233;28;19913;-82
2022/03/05 12:05:41;;;;;;;;;;;;;;;18.04;47.40;102271.06;5020895;28;19913;-82
2022/03/05 12:08:21;;;;;;;;;;;;;;;18.06;46.81;102274.56;4993174;28;19921;-80
2022/03/05 12:11:05;;;;;;;;;;;;;;;18.08;46.89;102267.66;5022570;28;19922;-80
2022/03/05 12:13:30;;;;;;;;;;;;;;;18.09;46.97;102270.28;5022519;28;19917;-81
2022/03/05 12:15:56;;;;;;;;;;;;;;;18.11;46.81;102272.88;5023645;28;20427;-81
2022/03/05 12:18:22;;;;;;;;;;;;;;;18.14;46.80;102269.44;5025898;28;20394;-81
2022/03/05 12:20:47;;;;;;;;;;;;;;;18.14;46.73;102266.81;5026868;28;20059;-81
2022/03/05 12:23:17;;;;;;;;;;;;;;;18.13;46.65;102263.34;5010893;28;19917;-81
2022/03/05 12:25:44;;;;;;;;;;;;;;;18.15;46.50;102261.63;5027255;28;19921;-82
2022/03/05 12:28:16;;;;;;;;;;;;;;;18.17;46.57;102262.53;5024716;28;19957;-81
2022/03/05 12:30:42;;;;;;;;;;;;;;;18.19;46.37;102262.56;5013127;28;19917;-81
2022/03/05 12:33:10;;;;;;;;;;;;;;;18.21;46.43;102259.09;5032136;28;19913;-81